sensor_id;sensor_type;location;lat;lon;timestamp;pressure;altitude;pressure_sealevel;temperature;humidity
84083;BME280;74174;52.224;6.878;2024-03-02T00:00:25;99785.91;;;7.65;73.42
84083;BME280;74174;52.224;6.878;2024-03-02T00:02:52;99781.69;;;7.64;73.25
84083;BME280;74174;52.224;6.878;2024-03-02T00:05:22;99785.78;;;7.60;72.92
84083;BME280;74174;52.224;6.878;2024-03-02T00:07:52;99765.34;;;7.56;73.32
84083;BME280;74174;52.224;6.878;2024-03-02T00:10:42;99784.56;;;7.63;73.28
84083;BME280;74174;52.224;6.878;2024-03-02T00:13:07;99805.19;;;7.66;73.07
84083;BME280;74174;52.224;6.878;2024-03-02T00:18:01;99790.84;;;7.62;73.27
84083;BME280;74174;52.224;6.878;2024-03-02T00:20:29;99793.81;;;7.65;73.70
84083;BME280;74174;52.224;6.878;2024-03-02T00:23:03;99796.03;;;7.68;73.38
84083;BME280;74174;52.224;6.878;2024-03-02T00:25:52;99790.34;;;7.72;72.71
84083;BME280;74174;52.224;6.878;2024-03-02T00:28:25;99771.31;;;7.70;73.53
84083;BME280;74174;52.224;6.878;2024-03-02T00:30:55;99766.03;;;7.70;73.64
84083;BME280;74174;52.224;6.878;2024-03-02T00:33:23;99766.19;;;7.75;73.43
84083;BME280;74174;52.224;6.878;2024-03-02T00:35:49;99775.34;;;7.72;73.59
84083;BME280;74174;52.224;6.878;2024-03-02T00:38:15;99778.75;;;7.73;73.63
84083;BME280;74174;52.224;6.878;2024-03-02T00:40:42;99779.22;;;7.70;73.52
84083;BME280;74174;52.224;6.878;2024-03-02T00:43:27;99794.22;;;7.69;73.67
84083;BME280;74174;52.224;6.878;2024-03-02T00:46:02;99778.22;;;7.64;73.95
84083;BME280;74174;52.224;6.878;2024-03-02T00:48:28;99781.09;;;7.62;73.40
84083;BME280;74174;52.224;6.878;2024-03-02T00:51:03;99776.84;;;7.61;73.43
84083;BME280;74174;52.224;6.878;2024-03-02T00:53:32;99766.94;;;7.57;73.83
84083;BME280;74174;52.224;6.878;2024-03-02T00:55:58;99767.16;;;7.55;74.04
84083;BME280;74174;52.224;6.878;2024-03-02T00:58:24;99757.47;;;7.49;74.44
84083;BME280;74174;52.224;6.878;2024-03-02T01:00:50;99756.69;;;7.49;74.10
84083;BME280;74174;52.224;6.878;2024-03-02T01:03:15;99754.69;;;7.44;74.61
84083;BME280;74174;52.224;6.878;2024-03-02T01:05:42;99751.81;;;7.46;74.36
84083;BME280;74174;52.224;6.878;2024-03-02T01:08:08;99761.78;;;7.44;74.48
84083;BME280;74174;52.224;6.878;2024-03-02T01:10:34;99759.50;;;7.47;74.62
84083;BME280;74174;52.224;6.878;2024-03-02T01:12:59;99766.25;;;7.43;74.66
84083;BME280;74174;52.224;6.878;2024-03-02T01:15:25;99763.19;;;7.46;74.73
84083;BME280;74174;52.224;6.878;2024-03-02T01:17:50;99761.56;;;7.45;74.84
84083;BME280;74174;52.224;6.878;2024-03-02T01:20:17;99758.50;;;7.48;74.56
84083;BME280;74174;52.224;6.878;2024-03-02T01:22:42;99754.22;;;7.47;75.13
84083;BME280;74174;52.224;6.878;2024-03-02T01:25:08;99745.97;;;7.44;75.10
84083;BME280;74174;52.224;6.878;2024-03-02T01:27:34;99750.78;;;7.47;75.14
84083;BME280;74174;52.224;6.878;2024-03-02T01:30:00;99746.31;;;7.47;75.11
84083;BME280;74174;52.224;6.878;2024-03-02T01:32:25;99750.59;;;7.48;75.25
84083;BME280;74174;52.224;6.878;2024-03-02T01:34:54;99740.25;;;7.47;75.03
84083;BME280;74174;52.224;6.878;2024-03-02T01:37:19;99729.09;;;7.45;75.59
84083;BME280;74174;52.224;6.878;2024-03-02T01:39:45;99731.56;;;7.46;75.09
84083;BME280;74174;52.224;6.878;2024-03-02T01:42:11;99737.59;;;7.47;75.00
84083;BME280;74174;52.224;6.878;2024-03-02T01:44:37;99722.00;;;7.45;75.55
84083;BME280;74174;52.224;6.878;2024-03-02T01:47:03;99736.81;;;7.46;75.48
84083;BME280;74174;52.224;6.878;2024-03-02T01:49:28;99736.59;;;7.48;74.93
84083;BME280;74174;52.224;6.878;2024-03-02T01:51:54;99730.91;;;7.51;75.60
84083;BME280;74174;52.224;6.878;2024-03-02T01:54:19;99739.59;;;7.51;75.41
84083;BME280;74174;52.224;6.878;2024-03-02T01:56:45;99733.09;;;7.54;75.48
84083;BME280;74174;52.224;6.878;2024-03-02T01:59:11;99735.13;;;7.52;75.03
84083;BME280;74174;52.224;6.878;2024-03-02T02:01:38;99738.34;;;7.54;75.10
84083;BME280;74174;52.224;6.878;2024-03-02T02:04:03;99727.03;;;7.53;75.57
84083;BME280;74174;52.224;6.878;2024-03-02T02:06:29;99722.75;;;7.52;75.82
84083;BME280;74174;52.224;6.878;2024-03-02T02:08:54;99731.50;;;7.53;75.92
84083;BME280;74174;52.224;6.878;2024-03-02T02:11:21;99728.63;;;7.54;75.64
84083;BME280;74174;52.224;6.878;2024-03-02T02:13:46;99729.66;;;7.53;75.67
84083;BME280;74174;52.224;6.878;2024-03-02T02:16:13;99728.44;;;7.56;75.40
84083;BME280;74174;52.224;6.878;2024-03-02T02:18:39;99724.75;;;7.57;75.42
84083;BME280;74174;52.224;6.878;2024-03-02T02:21:04;99726.75;;;7.61;75.48
84083;BME280;74174;52.224;6.878;2024-03-02T02:23:30;99725.34;;;7.59;75.05
84083;BME280;74174;52.224;6.878;2024-03-02T02:25:55;99720.88;;;7.59;75.28
84083;BME280;74174;52.224;6.878;2024-03-02T02:28:22;99720.88;;;7.59;75.81
84083;BME280;74174;52.224;6.878;2024-03-02T02:30:47;99726.97;;;7.60;75.40
84083;BME280;74174;52.224;6.878;2024-03-02T02:33:13;99718.25;;;7.59;75.33
84083;BME280;74174;52.224;6.878;2024-03-02T02:35:38;99726.09;;;7.66;75.69
84083;BME280;74174;52.224;6.878;2024-03-02T02:38:04;99733.81;;;7.68;75.61
84083;BME280;74174;52.224;6.878;2024-03-02T02:40:29;99733.56;;;7.69;75.31
84083;BME280;74174;52.224;6.878;2024-03-02T02:42:56;99728.06;;;7.71;75.23
84083;BME280;74174;52.224;6.878;2024-03-02T02:45:22;99731.09;;;7.74;75.13
84083;BME280;74174;52.224;6.878;2024-03-02T02:47:48;99728.81;;;7.78;74.91
84083;BME280;74174;52.224;6.878;2024-03-02T02:50:13;99723.53;;;7.78;75.22
84083;BME280;74174;52.224;6.878;2024-03-02T02:52:40;99729.84;;;7.77;74.94
84083;BME280;74174;52.224;6.878;2024-03-02T02:55:08;99728.81;;;7.78;75.02
84083;BME280;74174;52.224;6.878;2024-03-02T02:57:35;99716.66;;;7.77;75.32
84083;BME280;74174;52.224;6.878;2024-03-02T03:00:06;99722.53;;;7.79;75.21
84083;BME280;74174;52.224;6.878;2024-03-02T03:02:36;99725.16;;;7.79;75.01
84083;BME280;74174;52.224;6.878;2024-03-02T03:05:03;99728.38;;;7.81;74.85
84083;BME280;74174;52.224;6.878;2024-03-02T03:07:30;99735.50;;;7.80;74.80
84083;BME280;74174;52.224;6.878;2024-03-02T03:09:55;99722.31;;;7.80;75.05
84083;BME280;74174;52.224;6.878;2024-03-02T03:12:21;99728.75;;;7.84;74.88
84083;BME280;74174;52.224;6.878;2024-03-02T03:14:46;99729.56;;;7.85;74.95
84083;BME280;74174;52.224;6.878;2024-03-02T03:17:13;99727.38;;;7.82;75.36
84083;BME280;74174;52.224;6.878;2024-03-02T03:19:38;99728.75;;;7.84;74.75
84083;BME280;74174;52.224;6.878;2024-03-02T03:22:04;99724.09;;;7.86;75.23
84083;BME280;74174;52.224;6.878;2024-03-02T03:24:31;99734.03;;;7.84;74.99
84083;BME280;74174;52.224;6.878;2024-03-02T03:26:58;99723.69;;;7.83;75.03
84083;BME280;74174;52.224;6.878;2024-03-02T03:29:23;99714.63;;;7.79;74.71
84083;BME280;74174;52.224;6.878;2024-03-02T03:31:49;99712.41;;;7.76;74.84
84083;BME280;74174;52.224;6.878;2024-03-02T03:34:14;99725.00;;;7.74;75.01
84083;BME280;74174;52.224;6.878;2024-03-02T03:36:41;99728.06;;;7.71;75.66
84083;BME280;74174;52.224;6.878;2024-03-02T03:39:07;99724.69;;;7.63;75.16
84083;BME280;74174;52.224;6.878;2024-03-02T03:41:32;99725.94;;;7.61;75.92
84083;BME280;74174;52.224;6.878;2024-03-02T03:43:57;99729.00;;;7.58;75.47
84083;BME280;74174;52.224;6.878;2024-03-02T03:46:23;99728.19;;;7.57;75.52
84083;BME280;74174;52.224;6.878;2024-03-02T03:48:48;99725.56;;;7.57;75.66
84083;BME280;74174;52.224;6.878;2024-03-02T03:51:14;99730.69;;;7.52;75.60
84083;BME280;74174;52.224;6.878;2024-03-02T03:53:39;99727.06;;;7.47;75.98
84083;BME280;74174;52.224;6.878;2024-03-02T03:56:04;99719.97;;;7.47;76.18
84083;BME280;74174;52.224;6.878;2024-03-02T03:58:30;99727.06;;;7.47;75.41
84083;BME280;74174;52.224;6.878;2024-03-02T04:00:56;99730.34;;;7.42;75.48
84083;BME280;74174;52.224;6.878;2024-03-02T04:03:21;99739.47;;;7.40;75.76
84083;BME280;74174;52.224;6.878;2024-03-02T04:05:47;99731.47;;;7.28;75.55
84083;BME280;74174;52.224;6.878;2024-03-02T04:08:12;99743.41;;;7.31;75.65
84083;BME280;74174;52.224;6.878;2024-03-02T04:10:38;99751.53;;;7.29;74.92
84083;BME280;74174;52.224;6.878;2024-03-02T04:13:05;99761.50;;;7.27;75.14
84083;BME280;74174;52.224;6.878;2024-03-02T04:15:31;99753.19;;;7.24;76.39
84083;BME280;74174;52.224;6.878;2024-03-02T04:17:59;99748.16;;;7.22;75.30
84083;BME280;74174;52.224;6.878;2024-03-02T04:20:24;99751.59;;;7.23;75.44
84083;BME280;74174;52.224;6.878;2024-03-02T04:22:50;99751.38;;;7.24;75.89
84083;BME280;74174;52.224;6.878;2024-03-02T04:25:16;99749.16;;;7.21;76.50
84083;BME280;74174;52.224;6.878;2024-03-02T04:27:41;99757.69;;;7.23;76.03
84083;BME280;74174;52.224;6.878;2024-03-02T04:30:07;99767.41;;;7.23;76.46
84083;BME280;74174;52.224;6.878;2024-03-02T04:32:32;99757.81;;;7.28;76.63
84083;BME280;74174;52.224;6.878;2024-03-02T04:34:58;99756.22;;;7.27;77.12
84083;BME280;74174;52.224;6.878;2024-03-02T04:37:23;99763.91;;;7.29;77.08
84083;BME280;74174;52.224;6.878;2024-03-02T04:39:48;99764.50;;;7.31;76.45
84083;BME280;74174;52.224;6.878;2024-03-02T04:42:14;99760.84;;;7.32;76.66
84083;BME280;74174;52.224;6.878;2024-03-02T04:44:40;99756.41;;;7.32;76.15
84083;BME280;74174;52.224;6.878;2024-03-02T04:47:05;99740.19;;;7.29;76.53
84083;BME280;74174;52.224;6.878;2024-03-02T04:49:32;99749.91;;;7.28;76.88
84083;BME280;74174;52.224;6.878;2024-03-02T04:51:57;99748.91;;;7.29;77.19
84083;BME280;74174;52.224;6.878;2024-03-02T04:54:23;99746.03;;;7.31;77.26
84083;BME280;74174;52.224;6.878;2024-03-02T04:56:48;99761.22;;;7.35;77.30
84083;BME280;74174;52.224;6.878;2024-03-02T04:59:17;99764.47;;;7.37;76.77
84083;BME280;74174;52.224;6.878;2024-03-02T05:01:43;99765.97;;;7.51;77.31
84083;BME280;74174;52.224;6.878;2024-03-02T05:04:09;99762.13;;;7.47;76.55
84083;BME280;74174;52.224;6.878;2024-03-02T05:06:38;99767.59;;;7.52;76.98
84083;BME280;74174;52.224;6.878;2024-03-02T05:09:04;99772.50;;;7.49;77.24
84083;BME280;74174;52.224;6.878;2024-03-02T05:11:30;99769.63;;;7.50;76.97
84083;BME280;74174;52.224;6.878;2024-03-02T05:14:05;99782.59;;;7.52;77.05
84083;BME280;74174;52.224;6.878;2024-03-02T05:16:37;99779.34;;;7.50;77.27
84083;BME280;74174;52.224;6.878;2024-03-02T05:19:07;99787.66;;;7.53;76.95
84083;BME280;74174;52.224;6.878;2024-03-02T05:21:33;99783.19;;;7.54;76.56
84083;BME280;74174;52.224;6.878;2024-03-02T05:23:59;99777.72;;;7.55;77.00
84083;BME280;74174;52.224;6.878;2024-03-02T05:26:24;99774.03;;;7.56;76.83
84083;BME280;74174;52.224;6.878;2024-03-02T05:28:50;99788.25;;;7.55;77.59
84083;BME280;74174;52.224;6.878;2024-03-02T05:31:15;99788.44;;;7.54;77.12
84083;BME280;74174;52.224;6.878;2024-03-02T05:33:42;99795.88;;;7.63;77.17
84083;BME280;74174;52.224;6.878;2024-03-02T05:36:07;99803.75;;;7.70;77.62
84083;BME280;74174;52.224;6.878;2024-03-02T05:38:36;99802.47;;;7.79;77.69
84083;BME280;74174;52.224;6.878;2024-03-02T05:41:02;99804.97;;;7.92;77.24
84083;BME280;74174;52.224;6.878;2024-03-02T05:43:28;99801.47;;;7.98;76.79
84083;BME280;74174;52.224;6.878;2024-03-02T05:45:53;99793.50;;;8.05;76.51
84083;BME280;74174;52.224;6.878;2024-03-02T05:48:19;99793.28;;;8.06;76.82
84083;BME280;74174;52.224;6.878;2024-03-02T05:50:44;99795.91;;;8.06;76.88
84083;BME280;74174;52.224;6.878;2024-03-02T05:53:11;99798.91;;;8.10;76.72
84083;BME280;74174;52.224;6.878;2024-03-02T05:55:36;99793.88;;;8.08;75.92
84083;BME280;74174;52.224;6.878;2024-03-02T05:58:02;99802.19;;;8.05;76.40
84083;BME280;74174;52.224;6.878;2024-03-02T06:00:46;99797.59;;;8.01;76.28
84083;BME280;74174;52.224;6.878;2024-03-02T06:03:12;99805.78;;;7.93;76.62
84083;BME280;74174;52.224;6.878;2024-03-02T06:05:37;99799.75;;;7.86;76.04
84083;BME280;74174;52.224;6.878;2024-03-02T06:08:03;99805.69;;;7.81;76.35
84083;BME280;74174;52.224;6.878;2024-03-02T06:10:29;99817.47;;;7.79;77.13
84083;BME280;74174;52.224;6.878;2024-03-02T06:12:54;99802.06;;;7.76;76.81
84083;BME280;74174;52.224;6.878;2024-03-02T06:15:20;99807.19;;;7.71;76.70
84083;BME280;74174;52.224;6.878;2024-03-02T06:17:46;99818.97;;;7.68;76.75
84083;BME280;74174;52.224;6.878;2024-03-02T06:20:12;99813.75;;;7.61;76.82
84083;BME280;74174;52.224;6.878;2024-03-02T06:22:37;99823.53;;;7.54;76.12
84083;BME280;74174;52.224;6.878;2024-03-02T06:25:03;99820.38;;;7.46;76.12
84083;BME280;74174;52.224;6.878;2024-03-02T06:27:29;99822.47;;;7.37;76.38
84083;BME280;74174;52.224;6.878;2024-03-02T06:29:54;99830.19;;;7.32;76.19
84083;BME280;74174;52.224;6.878;2024-03-02T06:32:20;99838.72;;;7.28;76.41
84083;BME280;74174;52.224;6.878;2024-03-02T06:34:45;99845.22;;;7.25;77.37
84083;BME280;74174;52.224;6.878;2024-03-02T06:37:12;99837.50;;;7.24;77.63
84083;BME280;74174;52.224;6.878;2024-03-02T06:39:38;99844.63;;;7.23;77.09
84083;BME280;74174;52.224;6.878;2024-03-02T06:42:03;99852.72;;;7.22;77.18
84083;BME280;74174;52.224;6.878;2024-03-02T06:44:30;99852.13;;;7.20;77.61
84083;BME280;74174;52.224;6.878;2024-03-02T06:46:57;99852.94;;;7.20;78.35
84083;BME280;74174;52.224;6.878;2024-03-02T06:49:22;99853.75;;;7.21;78.26
84083;BME280;74174;52.224;6.878;2024-03-02T06:51:47;99855.00;;;7.18;77.62
84083;BME280;74174;52.224;6.878;2024-03-02T06:54:13;99860.25;;;7.18;77.81
84083;BME280;74174;52.224;6.878;2024-03-02T06:56:38;99848.91;;;7.18;77.71
84083;BME280;74174;52.224;6.878;2024-03-02T06:59:04;99851.75;;;7.16;78.48
84083;BME280;74174;52.224;6.878;2024-03-02T07:01:29;99847.31;;;7.10;77.70
84083;BME280;74174;52.224;6.878;2024-03-02T07:03:55;99845.91;;;7.08;78.29
84083;BME280;74174;52.224;6.878;2024-03-02T07:06:20;99855.84;;;7.06;78.25
84083;BME280;74174;52.224;6.878;2024-03-02T07:08:48;99851.81;;;7.03;78.44
84083;BME280;74174;52.224;6.878;2024-03-02T07:11:14;99861.97;;;7.00;78.68
84083;BME280;74174;52.224;6.878;2024-03-02T07:13:40;99861.97;;;7.00;78.24
84083;BME280;74174;52.224;6.878;2024-03-02T07:16:05;99869.66;;;7.01;78.35
84083;BME280;74174;52.224;6.878;2024-03-02T07:18:50;99871.69;;;6.99;78.42
84083;BME280;74174;52.224;6.878;2024-03-02T07:21:17;99869.06;;;6.99;78.02
84083;BME280;74174;52.224;6.878;2024-03-02T07:23:45;99869.28;;;6.97;78.00
84083;BME280;74174;52.224;6.878;2024-03-02T07:26:11;99872.69;;;6.98;78.62
84083;BME280;74174;52.224;6.878;2024-03-02T07:28:36;99873.72;;;6.97;77.86
84083;BME280;74174;52.224;6.878;2024-03-02T07:31:05;99887.50;;;6.99;78.25
84083;BME280;74174;52.224;6.878;2024-03-02T07:33:31;99887.09;;;7.02;77.89
84083;BME280;74174;52.224;6.878;2024-03-02T07:35:57;99886.88;;;7.04;78.05
84083;BME280;74174;52.224;6.878;2024-03-02T07:38:25;99894.38;;;7.07;78.73
84083;BME280;74174;52.224;6.878;2024-03-02T07:40:52;99877.34;;;7.09;78.53
84083;BME280;74174;52.224;6.878;2024-03-02T07:43:20;99889.25;;;7.18;78.66
84083;BME280;74174;52.224;6.878;2024-03-02T07:45:46;99901.97;;;7.28;78.18
84083;BME280;74174;52.224;6.878;2024-03-02T07:48:12;99896.25;;;7.37;78.69
84083;BME280;74174;52.224;6.878;2024-03-02T07:50:37;99903.84;;;7.52;78.34
84083;BME280;74174;52.224;6.878;2024-03-02T07:53:04;99899.56;;;7.57;78.56
84083;BME280;74174;52.224;6.878;2024-03-02T07:55:30;99898.25;;;7.73;77.96
84083;BME280;74174;52.224;6.878;2024-03-02T07:57:57;99894.78;;;7.79;77.40
84083;BME280;74174;52.224;6.878;2024-03-02T08:00:23;99900.75;;;7.93;77.30
84083;BME280;74174;52.224;6.878;2024-03-02T08:02:50;99903.28;;;8.06;77.06
84083;BME280;74174;52.224;6.878;2024-03-02T08:05:18;99902.56;;;8.17;77.27
84083;BME280;74174;52.224;6.878;2024-03-02T08:07:47;99897.47;;;8.22;75.90
84083;BME280;74174;52.224;6.878;2024-03-02T08:10:13;99918.69;;;8.40;75.68
84083;BME280;74174;52.224;6.878;2024-03-02T08:12:39;99924.25;;;8.50;75.24
84083;BME280;74174;52.224;6.878;2024-03-02T08:15:06;99928.22;;;8.59;73.87
84083;BME280;74174;52.224;6.878;2024-03-02T08:17:32;99932.66;;;8.65;74.52
84083;BME280;74174;52.224;6.878;2024-03-02T08:19:58;99926.63;;;8.76;74.33
84083;BME280;74174;52.224;6.878;2024-03-02T08:22:24;99930.19;;;8.88;73.08
84083;BME280;74174;52.224;6.878;2024-03-02T08:24:53;99925.03;;;8.93;73.21
84083;BME280;74174;52.224;6.878;2024-03-02T08:27:19;99935.97;;;8.97;73.43
84083;BME280;74174;52.224;6.878;2024-03-02T08:29:45;99935.44;;;9.07;73.40
84083;BME280;74174;52.224;6.878;2024-03-02T08:32:10;99930.63;;;9.22;72.25
84083;BME280;74174;52.224;6.878;2024-03-02T08:34:36;99930.97;;;9.25;71.42
84083;BME280;74174;52.224;6.878;2024-03-02T08:37:02;99926.69;;;9.42;71.64
84083;BME280;74174;52.224;6.878;2024-03-02T08:39:29;99928.81;;;9.52;71.70
84083;BME280;74174;52.224;6.878;2024-03-02T08:41:54;99929.19;;;9.67;70.12
84083;BME280;74174;52.224;6.878;2024-03-02T08:44:20;99927.97;;;9.81;70.40
84083;BME280;74174;52.224;6.878;2024-03-02T08:46:46;99939.06;;;10.01;69.28
84083;BME280;74174;52.224;6.878;2024-03-02T08:49:12;99929.78;;;10.10;68.84
84083;BME280;74174;52.224;6.878;2024-03-02T08:51:38;99930.16;;;10.25;68.87
84083;BME280;74174;52.224;6.878;2024-03-02T08:54:03;99933.19;;;10.40;68.71
84083;BME280;74174;52.224;6.878;2024-03-02T08:56:30;99943.09;;;10.57;67.89
84083;BME280;74174;52.224;6.878;2024-03-02T08:58:57;99940.66;;;10.78;67.55
84083;BME280;74174;52.224;6.878;2024-03-02T09:01:23;99942.13;;;10.97;66.79
84083;BME280;74174;52.224;6.878;2024-03-02T09:03:48;99931.47;;;11.21;64.07
84083;BME280;74174;52.224;6.878;2024-03-02T09:06:17;99924.91;;;11.23;65.39
84083;BME280;74174;52.224;6.878;2024-03-02T09:08:43;99930.91;;;11.19;64.92
84083;BME280;74174;52.224;6.878;2024-03-02T09:11:09;99925.94;;;11.22;64.41
84083;BME280;74174;52.224;6.878;2024-03-02T09:13:37;99934.66;;;11.34;65.96
84083;BME280;74174;52.224;6.878;2024-03-02T09:16:03;99935.78;;;11.50;65.93
84083;BME280;74174;52.224;6.878;2024-03-02T09:18:29;99925.94;;;11.62;65.12
84083;BME280;74174;52.224;6.878;2024-03-02T09:20:54;99921.63;;;11.72;65.67
84083;BME280;74174;52.224;6.878;2024-03-02T09:23:21;99928.31;;;11.75;62.91
84083;BME280;74174;52.224;6.878;2024-03-02T09:25:47;99934.09;;;11.72;64.22
84083;BME280;74174;52.224;6.878;2024-03-02T09:28:16;99955.81;;;11.57;62.61
84083;BME280;74174;52.224;6.878;2024-03-02T09:30:42;99947.19;;;11.50;64.73
84083;BME280;74174;52.224;6.878;2024-03-02T09:33:07;99948.59;;;11.41;63.08
84083;BME280;74174;52.224;6.878;2024-03-02T09:35:33;99939.72;;;11.47;64.25
84083;BME280;74174;52.224;6.878;2024-03-02T09:37:58;99942.59;;;11.46;62.99
84083;BME280;74174;52.224;6.878;2024-03-02T09:40:24;99940.97;;;11.45;64.13
84083;BME280;74174;52.224;6.878;2024-03-02T09:42:52;99934.97;;;11.49;63.17
84083;BME280;74174;52.224;6.878;2024-03-02T09:45:24;99941.50;;;11.58;63.77
84083;BME280;74174;52.224;6.878;2024-03-02T09:47:50;99943.31;;;11.69;61.75
84083;BME280;74174;52.224;6.878;2024-03-02T09:50:15;99944.56;;;11.78;60.47
84083;BME280;74174;52.224;6.878;2024-03-02T09:52:44;99945.75;;;11.71;60.86
84083;BME280;74174;52.224;6.878;2024-03-02T09:55:13;99946.75;;;11.82;62.00
84083;BME280;74174;52.224;6.878;2024-03-02T09:57:40;99949.59;;;11.92;62.71
84083;BME280;74174;52.224;6.878;2024-03-02T10:00:08;99951.75;;;12.11;61.72
84083;BME280;74174;52.224;6.878;2024-03-02T10:02:34;99956.88;;;12.29;60.64
84083;BME280;74174;52.224;6.878;2024-03-02T10:04:59;99948.25;;;12.22;61.88
84083;BME280;74174;52.224;6.878;2024-03-02T10:07:25;99952.41;;;12.18;61.03
84083;BME280;74174;52.224;6.878;2024-03-02T10:09:53;99945.69;;;12.27;60.11
84083;BME280;74174;52.224;6.878;2024-03-02T10:12:18;99943.13;;;12.04;60.16
84083;BME280;74174;52.224;6.878;2024-03-02T10:14:44;99949.34;;;12.10;62.72
84083;BME280;74174;52.224;6.878;2024-03-02T10:17:14;99949.34;;;12.10;59.77
84083;BME280;74174;52.224;6.878;2024-03-02T10:19:40;99945.81;;;12.04;59.71
84083;BME280;74174;52.224;6.878;2024-03-02T10:22:07;99947.81;;;12.14;59.46
84083;BME280;74174;52.224;6.878;2024-03-02T10:24:52;99940.50;;;12.37;60.10
84083;BME280;74174;52.224;6.878;2024-03-02T10:27:23;99937.91;;;12.59;60.14
84083;BME280;74174;52.224;6.878;2024-03-02T10:29:49;99938.66;;;12.93;59.66
84083;BME280;74174;52.224;6.878;2024-03-02T10:32:15;99944.03;;;13.14;57.39
84083;BME280;74174;52.224;6.878;2024-03-02T10:34:46;99941.44;;;13.20;57.49
84083;BME280;74174;52.224;6.878;2024-03-02T10:37:12;99930.09;;;13.29;56.04
84083;BME280;74174;52.224;6.878;2024-03-02T10:39:39;99928.03;;;13.58;55.46
84083;BME280;74174;52.224;6.878;2024-03-02T10:42:06;99929.38;;;13.87;57.37
84083;BME280;74174;52.224;6.878;2024-03-02T10:44:33;99932.59;;;14.16;54.79
84083;BME280;74174;52.224;6.878;2024-03-02T10:47:03;99935.53;;;14.19;53.08
84083;BME280;74174;52.224;6.878;2024-03-02T10:49:32;99922.88;;;14.31;53.44
84083;BME280;74174;52.224;6.878;2024-03-02T10:52:01;99917.91;;;14.45;52.39
84083;BME280;74174;52.224;6.878;2024-03-02T10:54:27;99917.81;;;14.30;51.66
84083;BME280;74174;52.224;6.878;2024-03-02T10:56:58;99916.63;;;14.52;53.26
84083;BME280;74174;52.224;6.878;2024-03-02T10:59:27;99921.88;;;14.84;50.14
84083;BME280;74174;52.224;6.878;2024-03-02T11:01:58;99927.22;;;14.79;50.50
84083;BME280;74174;52.224;6.878;2024-03-02T11:04:29;99917.69;;;14.93;51.20
84083;BME280;74174;52.224;6.878;2024-03-02T11:07:08;99925.53;;;15.25;48.42
84083;BME280;74174;52.224;6.878;2024-03-02T11:09:37;99923.28;;;15.59;48.41
84083;BME280;74174;52.224;6.878;2024-03-02T11:12:19;99921.69;;;15.78;48.75
84083;BME280;74174;52.224;6.878;2024-03-02T11:14:48;99922.28;;;16.00;48.15
84083;BME280;74174;52.224;6.878;2024-03-02T11:17:17;99916.31;;;16.89;48.41
84083;BME280;74174;52.224;6.878;2024-03-02T11:19:44;99920.28;;;17.01;44.24
84083;BME280;74174;52.224;6.878;2024-03-02T11:22:12;99920.66;;;17.39;45.44
84083;BME280;74174;52.224;6.878;2024-03-02T11:24:38;99926.28;;;16.73;45.91
84083;BME280;74174;52.224;6.878;2024-03-02T11:27:05;99924.03;;;17.05;45.71
84083;BME280;74174;52.224;6.878;2024-03-02T11:34:44;99909.94;;;17.39;42.96
84083;BME280;74174;52.224;6.878;2024-03-02T11:37:11;99927.31;;;17.56;44.54
84083;BME280;74174;52.224;6.878;2024-03-02T11:39:38;99911.13;;;17.71;44.57
84083;BME280;74174;52.224;6.878;2024-03-02T11:42:08;99916.09;;;17.88;44.12
84083;BME280;74174;52.224;6.878;2024-03-02T11:44:37;99900.59;;;18.52;42.31
84083;BME280;74174;52.224;6.878;2024-03-02T11:47:08;99893.06;;;19.02;41.65
84083;BME280;74174;52.224;6.878;2024-03-02T11:49:48;99897.56;;;19.06;41.33
84083;BME280;74174;52.224;6.878;2024-03-02T11:52:17;99890.72;;;19.38;39.38
84083;BME280;74174;52.224;6.878;2024-03-02T11:54:47;99895.09;;;18.86;39.63
84083;BME280;74174;52.224;6.878;2024-03-02T11:57:15;99894.41;;;18.18;38.80
84083;BME280;74174;52.224;6.878;2024-03-02T11:59:41;99899.81;;;17.79;40.60
84083;BME280;74174;52.224;6.878;2024-03-02T12:02:06;99895.19;;;17.90;41.65
84083;BME280;74174;52.224;6.878;2024-03-02T12:04:32;99890.59;;;18.29;40.68
84083;BME280;74174;52.224;6.878;2024-03-02T12:07:00;99876.53;;;18.37;41.15
84083;BME280;74174;52.224;6.878;2024-03-02T12:09:27;99877.72;;;18.79;41.18
84083;BME280;74174;52.224;6.878;2024-03-02T12:12:06;99882.22;;;19.07;38.49
84083;BME280;74174;52.224;6.878;2024-03-02T12:14:32;99879.13;;;18.52;38.41
84083;BME280;74174;52.224;6.878;2024-03-02T12:16:58;99871.13;;;18.47;39.14
84083;BME280;74174;52.224;6.878;2024-03-02T12:19:25;99864.50;;;18.87;37.98
84083;BME280;74174;52.224;6.878;2024-03-02T12:21:53;99867.19;;;18.87;38.30
84083;BME280;74174;52.224;6.878;2024-03-02T12:24:20;99867.91;;;18.93;38.89
84083;BME280;74174;52.224;6.878;2024-03-02T12:26:45;99856.34;;;19.16;37.20
84083;BME280;74174;52.224;6.878;2024-03-02T12:29:13;99865.28;;;19.30;38.19
84083;BME280;74174;52.224;6.878;2024-03-02T12:31:40;99859.25;;;19.19;35.78
84083;BME280;74174;52.224;6.878;2024-03-02T12:34:06;99859.81;;;18.50;37.08
84083;BME280;74174;52.224;6.878;2024-03-02T12:36:37;99854.78;;;18.91;37.26
84083;BME280;74174;52.224;6.878;2024-03-02T12:39:03;99858.56;;;18.67;37.25
84083;BME280;74174;52.224;6.878;2024-03-02T12:41:28;99851.28;;;18.91;38.77
84083;BME280;74174;52.224;6.878;2024-03-02T12:43:55;99852.94;;;19.10;37.44
84083;BME280;74174;52.224;6.878;2024-03-02T12:46:20;99850.81;;;19.07;37.78
84083;BME280;74174;52.224;6.878;2024-03-02T12:48:47;99859.13;;;18.87;37.54
84083;BME280;74174;52.224;6.878;2024-03-02T12:51:12;99849.38;;;19.15;37.13
84083;BME280;74174;52.224;6.878;2024-03-02T12:53:38;99844.56;;;19.12;36.64
84083;BME280;74174;52.224;6.878;2024-03-02T12:56:04;99847.06;;;19.27;37.48
84083;BME280;74174;52.224;6.878;2024-03-02T12:58:39;99851.16;;;19.43;36.38
84083;BME280;74174;52.224;6.878;2024-03-02T13:01:07;99849.56;;;19.42;36.40
84083;BME280;74174;52.224;6.878;2024-03-02T13:03:40;99840.06;;;19.26;36.29
84083;BME280;74174;52.224;6.878;2024-03-02T13:06:07;99852.75;;;18.83;36.67
84083;BME280;74174;52.224;6.878;2024-03-02T13:08:35;99858.28;;;18.39;36.76
84083;BME280;74174;52.224;6.878;2024-03-02T13:11:01;99853.59;;;18.55;38.23
84083;BME280;74174;52.224;6.878;2024-03-02T13:13:31;99841.03;;;18.22;38.05